sensor_id;sensor_type;location;lat;lon;timestamp;pressure;altitude;pressure_sealevel;temperature;humidity
46412;BME280;32113;42.012;24.870;2022-09-20T00:01:09;98871.25;;;16.54;44.54
46412;BME280;32113;42.012;24.870;2022-09-20T00:03:35;98862.00;;;16.71;44.25
46412;BME280;32113;42.012;24.870;2022-09-20T00:06:01;98854.59;;;16.84;43.92
46412;BME280;32113;42.012;24.870;2022-09-20T00:08:26;98862.47;;;17.03;43.74
46412;BME280;32113;42.012;24.870;2022-09-20T00:10:56;98861.53;;;17.06;43.48
46412;BME280;32113;42.012;24.870;2022-09-20T00:13:21;98855.06;;;16.94;42.22
46412;BME280;32113;42.012;24.870;2022-09-20T00:15:47;98847.56;;;17.10;42.20
46412;BME280;32113;42.012;24.870;2022-09-20T00:18:12;98849.53;;;17.26;41.81
46412;BME280;32113;42.012;24.870;2022-09-20T00:20:44;98846.44;;;17.38;41.45
46412;BME280;32113;42.012;24.870;2022-09-20T00:23:10;98847.78;;;17.47;41.51
46412;BME280;32113;42.012;24.870;2022-09-20T00:25:35;98838.97;;;17.51;41.06
46412;BME280;32113;42.012;24.870;2022-09-20T00:28:00;98830.00;;;17.58;39.97
46412;BME280;32113;42.012;24.870;2022-09-20T00:30:26;98830.56;;;17.65;40.00
46412;BME280;32113;42.012;24.870;2022-09-20T00:32:51;98827.34;;;17.81;39.78
46412;BME280;32113;42.012;24.870;2022-09-20T00:35:16;98825.22;;;17.89;39.66
46412;BME280;32113;42.012;24.870;2022-09-20T00:37:42;98819.22;;;17.89;39.67
46412;BME280;32113;42.012;24.870;2022-09-20T00:40:17;98834.22;;;18.01;39.33
46412;BME280;32113;42.012;24.870;2022-09-20T00:42:46;98833.00;;;18.10;38.97
46412;BME280;32113;42.012;24.870;2022-09-20T00:52:44;98841.94;;;18.03;39.75
46412;BME280;32113;42.012;24.870;2022-09-20T00:55:11;98837.53;;;18.05;39.51
46412;BME280;32113;42.012;24.870;2022-09-20T00:57:37;98843.84;;;17.99;39.55
46412;BME280;32113;42.012;24.870;2022-09-20T01:00:07;98835.47;;;17.92;39.32
46412;BME280;32113;42.012;24.870;2022-09-20T01:02:32;98848.22;;;17.97;39.59
46412;BME280;32113;42.012;24.870;2022-09-20T01:04:59;98845.44;;;18.02;40.02
46412;BME280;32113;42.012;24.870;2022-09-20T01:07:24;98846.91;;;18.09;39.90
46412;BME280;32113;42.012;24.870;2022-09-20T01:09:50;98844.66;;;18.20;39.90
46412;BME280;32113;42.012;24.870;2022-09-20T01:12:20;98844.16;;;18.12;39.65
46412;BME280;32113;42.012;24.870;2022-09-20T01:14:46;98850.28;;;18.11;40.29
46412;BME280;32113;42.012;24.870;2022-09-20T01:17:13;98846.16;;;18.05;40.27
46412;BME280;32113;42.012;24.870;2022-09-20T01:19:42;98842.00;;;18.01;40.31
46412;BME280;32113;42.012;24.870;2022-09-20T01:22:20;98852.94;;;18.09;40.55
46412;BME280;32113;42.012;24.870;2022-09-20T01:24:48;98849.09;;;18.18;40.34
46412;BME280;32113;42.012;24.870;2022-09-20T01:27:18;98856.03;;;18.18;40.11
46412;BME280;32113;42.012;24.870;2022-09-20T01:29:49;98859.88;;;18.28;40.54
46412;BME280;32113;42.012;24.870;2022-09-20T01:32:18;98857.84;;;18.35;41.29
46412;BME280;32113;42.012;24.870;2022-09-20T01:34:46;98851.34;;;18.05;42.74
46412;BME280;32113;42.012;24.870;2022-09-20T01:37:18;98861.00;;;17.41;44.60
46412;BME280;32113;42.012;24.870;2022-09-20T01:42:12;98865.69;;;16.18;48.93
46412;BME280;32113;42.012;24.870;2022-09-20T01:50:14;98852.38;;;15.00;53.53
46412;BME280;32113;42.012;24.870;2022-09-20T02:19:54;98882.59;;;14.97;53.13
46412;BME280;32113;42.012;24.870;2022-09-20T02:35:41;98879.44;;;15.16;52.80
46412;BME280;32113;42.012;24.870;2022-09-20T02:40:59;98874.44;;;15.37;52.06
46412;BME280;32113;42.012;24.870;2022-09-20T02:43:37;98879.56;;;15.39;51.71
46412;BME280;32113;42.012;24.870;2022-09-20T02:46:47;98876.97;;;15.39;51.62
46412;BME280;32113;42.012;24.870;2022-09-20T02:51:45;98878.53;;;15.44;51.23
46412;BME280;32113;42.012;24.870;2022-09-20T03:09:46;98907.97;;;15.93;49.88
46412;BME280;32113;42.012;24.870;2022-09-20T03:15:44;98909.16;;;15.82;49.97
46412;BME280;32113;42.012;24.870;2022-09-20T03:25:23;98912.22;;;15.68;49.34
46412;BME280;32113;42.012;24.870;2022-09-20T03:35:41;98904.03;;;15.00;51.19
46412;BME280;32113;42.012;24.870;2022-09-20T03:38:25;98908.03;;;14.81;52.25
46412;BME280;32113;42.012;24.870;2022-09-20T03:46:17;98912.50;;;14.75;51.72
46412;BME280;32113;42.012;24.870;2022-09-20T03:56:42;98907.81;;;15.18;48.76
46412;BME280;32113;42.012;24.870;2022-09-20T04:12:01;98911.88;;;16.05;45.68
46412;BME280;32113;42.012;24.870;2022-09-20T04:20:14;98925.00;;;16.48;43.46
46412;BME280;32113;42.012;24.870;2022-09-20T04:22:41;98921.34;;;16.53;43.47
46412;BME280;32113;42.012;24.870;2022-09-20T04:25:14;98926.03;;;16.67;42.42
46412;BME280;32113;42.012;24.870;2022-09-20T04:30:15;98932.00;;;16.70;42.21
46412;BME280;32113;42.012;24.870;2022-09-20T04:32:47;98922.25;;;16.76;41.83
46412;BME280;32113;42.012;24.870;2022-09-20T04:37:59;98942.53;;;16.89;41.76
46412;BME280;32113;42.012;24.870;2022-09-20T04:59:07;98963.31;;;16.39;44.30
46412;BME280;32113;42.012;24.870;2022-09-20T05:02:00;98964.31;;;16.35;44.97
46412;BME280;32113;42.012;24.870;2022-09-20T05:20:16;98974.69;;;16.10;46.54
46412;BME280;32113;42.012;24.870;2022-09-20T05:28:02;98962.50;;;16.12;47.41
46412;BME280;32113;42.012;24.870;2022-09-20T05:38:09;98950.81;;;16.01;43.14
46412;BME280;32113;42.012;24.870;2022-09-20T05:40:52;98952.03;;;16.17;41.73
46412;BME280;32113;42.012;24.870;2022-09-20T05:43:29;98948.59;;;16.40;39.62
46412;BME280;32113;42.012;24.870;2022-09-20T05:48:44;98963.59;;;16.79;38.50
46412;BME280;32113;42.012;24.870;2022-09-20T05:51:27;98956.91;;;16.96;38.18
46412;BME280;32113;42.012;24.870;2022-09-20T05:54:15;98962.19;;;17.17;38.75
46412;BME280;32113;42.012;24.870;2022-09-20T06:01:54;98965.69;;;17.60;38.53
46412;BME280;32113;42.012;24.870;2022-09-20T06:04:23;98961.41;;;17.59;36.54
46412;BME280;32113;42.012;24.870;2022-09-20T06:07:02;98973.56;;;17.57;36.55
46412;BME280;32113;42.012;24.870;2022-09-20T06:12:19;98964.13;;;17.56;37.45
46412;BME280;32113;42.012;24.870;2022-09-20T06:14:50;98972.94;;;17.52;37.65
46412;BME280;32113;42.012;24.870;2022-09-20T06:19:51;98969.91;;;17.63;37.08
46412;BME280;32113;42.012;24.870;2022-09-20T06:25:02;98968.88;;;17.67;36.62
46412;BME280;32113;42.012;24.870;2022-09-20T06:27:33;98975.41;;;17.76;36.64
46412;BME280;32113;42.012;24.870;2022-09-20T06:30:00;98980.72;;;17.73;36.47
46412;BME280;32113;42.012;24.870;2022-09-20T06:32:27;98994.75;;;17.69;36.64
46412;BME280;32113;42.012;24.870;2022-09-20T06:34:52;98988.38;;;17.55;35.96
46412;BME280;32113;42.012;24.870;2022-09-20T06:37:30;98986.50;;;17.59;36.26
46412;BME280;32113;42.012;24.870;2022-09-20T06:40:27;98988.59;;;17.71;36.33
46412;BME280;32113;42.012;24.870;2022-09-20T06:43:13;98996.97;;;17.56;36.16
46412;BME280;32113;42.012;24.870;2022-09-20T06:45:41;98990.59;;;17.65;36.47
46412;BME280;32113;42.012;24.870;2022-09-20T06:48:07;98994.16;;;17.62;35.61
46412;BME280;32113;42.012;24.870;2022-09-20T06:50:37;98986.88;;;17.50;35.63
46412;BME280;32113;42.012;24.870;2022-09-20T06:53:03;98990.16;;;17.53;35.31
46412;BME280;32113;42.012;24.870;2022-09-20T06:55:29;98988.66;;;17.70;34.93
46412;BME280;32113;42.012;24.870;2022-09-20T06:57:56;99006.28;;;17.82;35.58
46412;BME280;32113;42.012;24.870;2022-09-20T07:00:21;98999.03;;;17.91;35.39
46412;BME280;32113;42.012;24.870;2022-09-20T07:02:47;98997.09;;;17.96;34.59
46412;BME280;32113;42.012;24.870;2022-09-20T07:05:15;99007.94;;;18.06;35.27
46412;BME280;32113;42.012;24.870;2022-09-20T07:07:41;99015.56;;;18.10;34.39
46412;BME280;32113;42.012;24.870;2022-09-20T07:10:08;99006.94;;;17.88;33.52
46412;BME280;32113;42.012;24.870;2022-09-20T07:12:33;99010.22;;;17.93;33.86
46412;BME280;32113;42.012;24.870;2022-09-20T07:14:59;98998.72;;;17.98;33.61
46412;BME280;32113;42.012;24.870;2022-09-20T07:17:24;99015.38;;;18.15;32.94
46412;BME280;32113;42.012;24.870;2022-09-20T07:19:50;99003.16;;;17.96;31.99
46412;BME280;32113;42.012;24.870;2022-09-20T07:22:15;99009.25;;;17.95;31.83
46412;BME280;32113;42.012;24.870;2022-09-20T07:24:40;99005.84;;;17.93;31.92
46412;BME280;32113;42.012;24.870;2022-09-20T07:27:06;98998.50;;;17.82;31.66
46412;BME280;32113;42.012;24.870;2022-09-20T07:29:31;99009.03;;;17.79;32.08
46412;BME280;32113;42.012;24.870;2022-09-20T07:31:59;99022.94;;;17.78;32.13
46412;BME280;32113;42.012;24.870;2022-09-20T07:34:26;99009.53;;;17.88;31.93
46412;BME280;32113;42.012;24.870;2022-09-20T07:36:51;98998.34;;;17.87;31.47
46412;BME280;32113;42.012;24.870;2022-09-20T07:39:17;99022.22;;;17.95;31.51
46412;BME280;32113;42.012;24.870;2022-09-20T07:41:42;99013.25;;;18.03;31.87
46412;BME280;32113;42.012;24.870;2022-09-20T07:44:12;99018.97;;;17.90;30.75
46412;BME280;32113;42.012;24.870;2022-09-20T07:46:49;99022.41;;;17.91;31.29
46412;BME280;32113;42.012;24.870;2022-09-20T07:49:15;99018.25;;;17.86;31.70
46412;BME280;32113;42.012;24.870;2022-09-20T07:51:40;99014.88;;;17.84;31.79
46412;BME280;32113;42.012;24.870;2022-09-20T07:54:05;99002.50;;;17.91;31.23
46412;BME280;32113;42.012;24.870;2022-09-20T07:56:31;99005.78;;;17.95;30.99
46412;BME280;32113;42.012;24.870;2022-09-20T07:58:56;99006.38;;;18.02;31.48
46412;BME280;32113;42.012;24.870;2022-09-20T08:01:21;99008.28;;;17.98;30.96
46412;BME280;32113;42.012;24.870;2022-09-20T08:03:47;99000.06;;;18.09;31.15
46412;BME280;32113;42.012;24.870;2022-09-20T08:06:12;99010.78;;;18.22;30.72
46412;BME280;32113;42.012;24.870;2022-09-20T08:08:42;99003.94;;;18.40;30.88
46412;BME280;32113;42.012;24.870;2022-09-20T08:11:14;98992.16;;;18.52;30.95
46412;BME280;32113;42.012;24.870;2022-09-20T08:13:45;99000.75;;;18.54;30.22
46412;BME280;32113;42.012;24.870;2022-09-20T08:16:10;99000.69;;;18.75;30.30
46412;BME280;32113;42.012;24.870;2022-09-20T08:18:38;99003.41;;;18.72;30.13
46412;BME280;32113;42.012;24.870;2022-09-20T08:21:04;99007.00;;;18.69;30.14
46412;BME280;32113;42.012;24.870;2022-09-20T08:23:32;98998.44;;;18.86;30.17
46412;BME280;32113;42.012;24.870;2022-09-20T08:25:57;99000.28;;;19.03;30.56
46412;BME280;32113;42.012;24.870;2022-09-20T08:28:23;98994.94;;;19.07;30.26
46412;BME280;32113;42.012;24.870;2022-09-20T08:30:48;98983.63;;;19.08;29.52
46412;BME280;32113;42.012;24.870;2022-09-20T08:33:13;98996.75;;;19.24;29.41
46412;BME280;32113;42.012;24.870;2022-09-20T08:35:39;99003.56;;;19.46;28.21
46412;BME280;32113;42.012;24.870;2022-09-20T08:38:04;98989.97;;;19.58;28.36
46412;BME280;32113;42.012;24.870;2022-09-20T08:40:31;98989.50;;;19.67;28.39
46412;BME280;32113;42.012;24.870;2022-09-20T08:42:57;98974.97;;;19.81;28.02
46412;BME280;32113;42.012;24.870;2022-09-20T08:45:23;98979.09;;;19.85;27.11
46412;BME280;32113;42.012;24.870;2022-09-20T08:47:51;98963.78;;;20.14;27.83
46412;BME280;32113;42.012;24.870;2022-09-20T08:50:18;98962.13;;;20.29;27.88
46412;BME280;32113;42.012;24.870;2022-09-20T08:52:47;98966.16;;;20.53;26.95
46412;BME280;32113;42.012;24.870;2022-09-20T08:55:15;98965.59;;;20.80;27.37
46412;BME280;32113;42.012;24.870;2022-09-20T08:57:41;98960.31;;;20.97;26.82
46412;BME280;32113;42.012;24.870;2022-09-20T09:00:09;98961.31;;;21.11;27.80
46412;BME280;32113;42.012;24.870;2022-09-20T09:02:41;98965.78;;;21.25;26.77
46412;BME280;32113;42.012;24.870;2022-09-20T09:07:52;98952.66;;;21.57;26.93
46412;BME280;32113;42.012;24.870;2022-09-20T09:10:17;98948.25;;;21.74;27.20
46412;BME280;32113;42.012;24.870;2022-09-20T09:12:42;98936.66;;;21.94;26.76
46412;BME280;32113;42.012;24.870;2022-09-20T09:15:32;98948.31;;;22.03;27.52
46412;BME280;32113;42.012;24.870;2022-09-20T09:17:56;98936.66;;;21.94;27.25
46412;BME280;32113;42.012;24.870;2022-09-20T09:20:22;98938.16;;;21.98;26.64
46412;BME280;32113;42.012;24.870;2022-09-20T09:23:01;98935.25;;;22.17;26.25
46412;BME280;32113;42.012;24.870;2022-09-20T09:25:30;98933.94;;;22.39;26.56
46412;BME280;32113;42.012;24.870;2022-09-20T09:28:22;98938.69;;;22.76;26.86
46412;BME280;32113;42.012;24.870;2022-09-20T09:30:46;98940.44;;;22.90;25.79
46412;BME280;32113;42.012;24.870;2022-09-20T09:35:54;98933.88;;;22.97;24.98
46412;BME280;32113;42.012;24.870;2022-09-20T09:38:21;98926.09;;;23.10;25.84
46412;BME280;32113;42.012;24.870;2022-09-20T09:40:58;98933.72;;;23.14;25.46
46412;BME280;32113;42.012;24.870;2022-09-20T09:43:34;98924.75;;;23.31;25.71
46412;BME280;32113;42.012;24.870;2022-09-20T09:46:15;98925.56;;;23.46;24.66
46412;BME280;32113;42.012;24.870;2022-09-20T09:48:42;98920.78;;;23.66;24.77
46412;BME280;32113;42.012;24.870;2022-09-20T09:53:37;98918.94;;;24.20;24.55
46412;BME280;32113;42.012;24.870;2022-09-20T10:00:57;98920.19;;;24.01;24.74
46412;BME280;32113;42.012;24.870;2022-09-20T10:08:53;98917.22;;;23.54;24.98
46412;BME280;32113;42.012;24.870;2022-09-20T10:16:25;98904.44;;;23.49;24.76
46412;BME280;32113;42.012;24.870;2022-09-20T10:18:55;98913.34;;;23.59;24.34
46412;BME280;32113;42.012;24.870;2022-09-20T10:31:48;98888.78;;;24.51;21.99
46412;BME280;32113;42.012;24.870;2022-09-20T10:37:00;98886.84;;;24.66;23.38
46412;BME280;32113;42.012;24.870;2022-09-20T10:47:19;98875.56;;;24.53;21.58
46412;BME280;32113;42.012;24.870;2022-09-20T10:52:40;98873.09;;;24.63;21.50
46412;BME280;32113;42.012;24.870;2022-09-20T11:00:20;98872.13;;;24.77;23.15
46412;BME280;32113;42.012;24.870;2022-09-20T11:07:53;98863.25;;;24.91;22.90
46412;BME280;32113;42.012;24.870;2022-09-20T11:10:26;98853.47;;;24.69;22.80
46412;BME280;32113;42.012;24.870;2022-09-20T11:12:58;98855.53;;;24.76;24.00
46412;BME280;32113;42.012;24.870;2022-09-20T11:15:37;98853.75;;;24.52;22.75
46412;BME280;32113;42.012;24.870;2022-09-20T11:20:31;98850.06;;;24.55;24.00
46412;BME280;32113;42.012;24.870;2022-09-20T11:22:59;98836.94;;;24.55;23.87
46412;BME280;32113;42.012;24.870;2022-09-20T11:28:10;98838.56;;;24.45;24.74
46412;BME280;32113;42.012;24.870;2022-09-20T11:30:40;98832.53;;;24.31;23.67
46412;BME280;32113;42.012;24.870;2022-09-20T11:33:27;98828.75;;;24.35;23.29
46412;BME280;32113;42.012;24.870;2022-09-20T11:36:00;98832.06;;;24.13;24.45
46412;BME280;32113;42.012;24.870;2022-09-20T11:38:38;98831.91;;;24.27;24.58
46412;BME280;32113;42.012;24.870;2022-09-20T11:43:33;98819.97;;;23.97;23.82
46412;BME280;32113;42.012;24.870;2022-09-20T11:46:03;98825.84;;;23.88;24.50
46412;BME280;32113;42.012;24.870;2022-09-20T11:48:51;98824.28;;;23.98;25.10
46412;BME280;32113;42.012;24.870;2022-09-20T11:51:25;98819.47;;;24.18;24.81
46412;BME280;32113;42.012;24.870;2022-09-20T11:54:00;98819.91;;;24.12;25.07
46412;BME280;32113;42.012;24.870;2022-09-20T11:56:29;98803.63;;;24.20;24.42
46412;BME280;32113;42.012;24.870;2022-09-20T11:58:58;98810.03;;;24.16;24.07
46412;BME280;32113;42.012;24.870;2022-09-20T12:01:28;98817.16;;;24.13;24.40
46412;BME280;32113;42.012;24.870;2022-09-20T12:03:57;98807.09;;;24.07;23.96
46412;BME280;32113;42.012;24.870;2022-09-20T12:06:30;98795.56;;;24.10;23.83
46412;BME280;32113;42.012;24.870;2022-09-20T12:08:57;98804.81;;;24.02;23.82
46412;BME280;32113;42.012;24.870;2022-09-20T12:11:29;98811.75;;;23.91;24.23
46412;BME280;32113;42.012;24.870;2022-09-20T12:14:00;98803.94;;;24.02;24.46
46412;BME280;32113;42.012;24.870;2022-09-20T12:19:04;98805.75;;;23.88;24.54
46412;BME280;32113;42.012;24.870;2022-09-20T12:21:48;98802.19;;;23.89;25.42
46412;BME280;32113;42.012;24.870;2022-09-20T12:24:18;98808.69;;;23.97;24.51
46412;BME280;32113;42.012;24.870;2022-09-20T12:26:44;98819.06;;;23.98;25.39
46412;BME280;32113;42.012;24.870;2022-09-20T12:31:48;98813.00;;;23.85;24.37
46412;BME280;32113;42.012;24.870;2022-09-20T12:41:49;98806.66;;;24.13;24.68
46412;BME280;32113;42.012;24.870;2022-09-20T12:49:33;98813.81;;;23.85;24.72
46412;BME280;32113;42.012;24.870;2022-09-20T12:52:21;98816.34;;;23.74;25.09
46412;BME280;32113;42.012;24.870;2022-09-20T12:55:06;98807.34;;;23.78;25.45
46412;BME280;32113;42.012;24.870;2022-09-20T12:57:33;98812.25;;;23.96;25.01
46412;BME280;32113;42.012;24.870;2022-09-20T13:00:00;98804.09;;;23.74;25.42
46412;BME280;32113;42.012;24.870;2022-09-20T13:02:40;98801.59;;;23.73;24.92
46412;BME280;32113;42.012;24.870;2022-09-20T13:05:56;98796.31;;;23.86;24.85
46412;BME280;32113;42.012;24.870;2022-09-20T13:07:52;98792.44;;;23.79;24.72
46412;BME280;32113;42.012;24.870;2022-09-20T13:10:20;98801.28;;;23.52;25.13
46412;BME280;32113;42.012;24.870;2022-09-20T13:12:47;98792.28;;;23.69;25.27
46412;BME280;32113;42.012;24.870;2022-09-20T13:15:18;98795.41;;;23.74;25.46
46412;BME280;32113;42.012;24.870;2022-09-20T13:17:43;98799.56;;;23.89;25.33
46412;BME280;32113;42.012;24.870;2022-09-20T13:20:24;98801.53;;;23.99;25.57
46412;BME280;32113;42.012;24.870;2022-09-20T13:22:53;98795.97;;;24.17;25.15
46412;BME280;32113;42.012;24.870;2022-09-20T13:25:20;98804.44;;;24.33;25.12
46412;BME280;32113;42.012;24.870;2022-09-20T13:27:52;98800.91;;;24.46;24.23
46412;BME280;32113;42.012;24.870;2022-09-20T13:30:22;98809.88;;;24.30;23.60
46412;BME280;32113;42.012;24.870;2022-09-20T13:32:48;98802.31;;;24.38;23.89
46412;BME280;32113;42.012;24.870;2022-09-20T13:35:15;98802.41;;;24.37;24.04
46412;BME280;32113;42.012;24.870;2022-09-20T13:42:50;98791.00;;;24.62;23.92
46412;BME280;32113;42.012;24.870;2022-09-20T13:45:16;98794.09;;;24.67;23.86
46412;BME280;32113;42.012;24.870;2022-09-20T13:47:43;98801.28;;;24.77;23.81
46412;BME280;32113;42.012;24.870;2022-09-20T13:50:22;98808.91;;;24.80;23.47
46412;BME280;32113;42.012;24.870;2022-09-20T13:52:58;98803.91;;;24.77;23.46
46412;BME280;32113;42.012;24.870;2022-09-20T13:55:28;98801.72;;;24.84;23.96
46412;BME280;32113;42.012;24.870;2022-09-20T13:57:54;98812.72;;;25.00;23.53
46412;BME280;32113;42.012;24.870;2022-09-20T14:00:22;98808.59;;;25.09;23.47
46412;BME280;32113;42.012;24.870;2022-09-20T14:02:48;98809.19;;;25.13;23.68
46412;BME280;32113;42.012;24.870;2022-09-20T14:05:16;98803.03;;;25.25;23.37
46412;BME280;32113;42.012;24.870;2022-09-20T14:07:43;98802.66;;;25.30;22.94
46412;BME280;32113;42.012;24.870;2022-09-20T14:13:12;98804.25;;;24.97;23.39
46412;BME280;32113;42.012;24.870;2022-09-20T14:15:42;98801.91;;;25.05;23.35
46412;BME280;32113;42.012;24.870;2022-09-20T14:18:11;98813.47;;;25.02;23.02
46412;BME280;32113;42.012;24.870;2022-09-20T14:20:39;98811.81;;;25.01;23.00
46412;BME280;32113;42.012;24.870;2022-09-20T14:23:05;98808.97;;;25.16;22.63
46412;BME280;32113;42.012;24.870;2022-09-20T14:25:39;98815.72;;;25.07;22.77
46412;BME280;32113;42.012;24.870;2022-09-20T14:28:18;98814.56;;;25.11;23.30
46412;BME280;32113;42.012;24.870;2022-09-20T14:30:44;98818.41;;;25.18;23.33
46412;BME280;32113;42.012;24.870;2022-09-20T14:33:17;98825.94;;;24.87;22.93
46412;BME280;32113;42.012;24.870;2022-09-20T14:35:50;98827.59;;;24.64;23.35
46412;BME280;32113;42.012;24.870;2022-09-20T14:38:21;98834.03;;;24.47;23.94
46412;BME280;32113;42.012;24.870;2022-09-20T14:40:48;98823.38;;;24.37;23.67
46412;BME280;32113;42.012;24.870;2022-09-20T14:43:32;98824.66;;;24.31;23.82
46412;BME280;32113;42.012;24.870;2022-09-20T14:45:59;98827.53;;;24.52;24.33
46412;BME280;32113;42.012;24.870;2022-09-20T14:48:33;98824.94;;;24.39;23.71
46412;BME280;32113;42.012;24.870;2022-09-20T14:53:40;98835.78;;;24.22;24.38
46412;BME280;32113;42.012;24.870;2022-09-20T14:56:09;98830.91;;;24.17;23.75
46412;BME280;32113;42.012;24.870;2022-09-20T15:01:22;98821.47;;;24.39;23.80
46412;BME280;32113;42.012;24.870;2022-09-20T15:03:48;98829.25;;;24.40;23.23
46412;BME280;32113;42.012;24.870;2022-09-20T15:06:14;98825.50;;;24.32;23.12
46412;BME280;32113;42.012;24.870;2022-09-20T15:08:39;98830.59;;;24.46;23.43
46412;BME280;32113;42.012;24.870;2022-09-20T15:11:05;98831.09;;;24.51;23.31
46412;BME280;32113;42.012;24.870;2022-09-20T15:13:30;98836.16;;;24.41;23.61
46412;BME280;32113;42.012;24.870;2022-09-20T15:15:56;98828.63;;;24.37;23.37
46412;BME280;32113;42.012;24.870;2022-09-20T15:18:23;98826.88;;;24.24;23.74
46412;BME280;32113;42.012;24.870;2022-09-20T15:20:50;98832.22;;;24.23;24.16
46412;BME280;32113;42.012;24.870;2022-09-20T15:23:16;98830.75;;;24.19;24.01
46412;BME280;32113;42.012;24.870;2022-09-20T15:25:41;98830.38;;;24.12;24.72
46412;BME280;32113;42.012;24.870;2022-09-20T15:28:10;98839.28;;;24.09;24.57
46412;BME280;32113;42.012;24.870;2022-09-20T15:30:36;98834.78;;;24.11;24.83
46412;BME280;32113;42.012;24.870;2022-09-20T15:33:02;98834.88;;;24.10;25.32
46412;BME280;32113;42.012;24.870;2022-09-20T15:35:27;98840.88;;;24.12;25.24
46412;BME280;32113;42.012;24.870;2022-09-20T15:37:52;98836.75;;;23.95;24.39
46412;BME280;32113;42.012;24.870;2022-09-20T15:40:17;98836.34;;;23.75;24.63
46412;BME280;32113;42.012;24.870;2022-09-20T15:42:43;98841.94;;;23.70;24.74
46412;BME280;32113;42.012;24.870;2022-09-20T15:45:10;98844.75;;;23.54;24.97
46412;BME280;32113;42.012;24.870;2022-09-20T15:47:36;98842.13;;;23.41;25.25
46412;BME280;32113;42.012;24.870;2022-09-20T15:50:02;98840.66;;;23.37;25.97
46412;BME280;32113;42.012;24.870;2022-09-20T15:52:31;98839.81;;;23.36;26.33
46412;BME280;32113;42.012;24.870;2022-09-20T15:54:58;98848.16;;;23.29;25.90
46412;BME280;32113;42.012;24.870;2022-09-20T15:57:24;98852.94;;;23.22;25.34
46412;BME280;32113;42.012;24.870;2022-09-20T15:59:50;98854.28;;;23.15;25.54
46412;BME280;32113;42.012;24.870;2022-09-20T16:02:16;98866.53;;;23.14;25.70
46412;BME280;32113;42.012;24.870;2022-09-20T16:04:41;98863.16;;;23.12;26.14
46412;BME280;32113;42.012;24.870;2022-09-20T16:07:06;98870.47;;;23.07;27.01
46412;BME280;32113;42.012;24.870;2022-09-20T16:09:33;98871.44;;;23.06;27.20
46412;BME280;32113;42.012;24.870;2022-09-20T16:12:00;98876.97;;;23.01;27.60
46412;BME280;32113;42.012;24.870;2022-09-20T16:14:25;98877.16;;;22.98;27.49
46412;BME280;32113;42.012;24.870;2022-09-20T16:16:50;98877.88;;;23.00;27.59
46412;BME280;32113;42.012;24.870;2022-09-20T16:19:15;98886.16;;;22.94;28.06
46412;BME280;32113;42.012;24.870;2022-09-20T16:21:42;98892.41;;;22.91;27.94
46412;BME280;32113;42.012;24.870;2022-09-20T16:24:08;98891.88;;;22.86;28.15
46412;BME280;32113;42.012;24.870;2022-09-20T16:26:34;98887.03;;;22.80;28.25
46412;BME280;32113;42.012;24.870;2022-09-20T16:28:59;98891.69;;;22.75;28.31
46412;BME280;32113;42.012;24.870;2022-09-20T16:33:55;98898.94;;;22.56;28.54
46412;BME280;32113;42.012;24.870;2022-09-20T16:36:21;98903.44;;;22.54;28.64
46412;BME280;32113;42.012;24.870;2022-09-20T16:38:49;98911.44;;;22.51;28.46
46412;BME280;32113;42.012;24.870;2022-09-20T16:41:14;98916.94;;;22.47;28.51
46412;BME280;32113;42.012;24.870;2022-09-20T16:43:39;98919.13;;;22.40;28.32
46412;BME280;32113;42.012;24.870;2022-09-20T16:46:05;98920.50;;;22.31;28.82
46412;BME280;32113;42.012;24.870;2022-09-20T16:48:30;98924.06;;;22.30;28.84
46412;BME280;32113;42.012;24.870;2022-09-20T16:50:56;98924.16;;;22.28;28.82
46412;BME280;32113;42.012;24.870;2022-09-20T16:53:24;98927.88;;;22.24;28.49
46412;BME280;32113;42.012;24.870;2022-09-20T16:55:49;98926.13;;;22.10;28.35
46412;BME280;32113;42.012;24.870;2022-09-20T16:58:16;98928.19;;;22.05;28.74
46412;BME280;32113;42.012;24.870;2022-09-20T17:00:41;98934.78;;;22.11;28.96
46412;BME280;32113;42.012;24.870;2022-09-20T17:03:06;98932.16;;;22.11;28.72
46412;BME280;32113;42.012;24.870;2022-09-20T17:05:32;98938.25;;;22.11;28.69
46412;BME280;32113;42.012;24.870;2022-09-20T17:07:57;98939.28;;;22.09;28.89
46412;BME280;32113;42.012;24.870;2022-09-20T17:10:22;98949.16;;;22.03;29.10
46412;BME280;32113;42.012;24.870;2022-09-20T17:12:49;98942.34;;;22.01;29.44
46412;BME280;32113;42.012;24.870;2022-09-20T17:15:16;98945.97;;;21.98;29.52
46412;BME280;32113;42.012;24.870;2022-09-20T17:17:41;98947.56;;;22.01;29.91
46412;BME280;32113;42.012;24.870;2022-09-20T17:20:07;98953.53;;;22.03;29.61
46412;BME280;32113;42.012;24.870;2022-09-20T17:22:32;98954.47;;;22.02;30.00
46412;BME280;32113;42.012;24.870;2022-09-20T17:24:58;98960.81;;;21.98;30.22
46412;BME280;32113;42.012;24.870;2022-09-20T17:27:23;98966.13;;;21.96;29.99
46412;BME280;32113;42.012;24.870;2022-09-20T17:29:48;98970.69;;;21.92;29.94
46412;BME280;32113;42.012;24.870;2022-09-20T17:32:14;98969.25;;;21.87;29.83
46412;BME280;32113;42.012;24.870;2022-09-20T17:34:39;98975.72;;;21.81;30.02
46412;BME280;32113;42.012;24.870;2022-09-20T17:37:05;98971.91;;;21.71;29.64
46412;BME280;32113;42.012;24.870;2022-09-20T17:39:30;98971.84;;;21.72;30.43
46412;BME280;32113;42.012;24.870;2022-09-20T17:41:55;98980.59;;;21.71;30.15
46412;BME280;32113;42.012;24.870;2022-09-20T17:44:21;98981.84;;;21.64;30.30
46412;BME280;32113;42.012;24.870;2022-09-20T17:46:47;98992.50;;;21.61;30.77
46412;BME280;32113;42.012;24.870;2022-09-20T17:49:15;98999.91;;;21.52;31.26
46412;BME280;32113;42.012;24.870;2022-09-20T17:51:41;98997.31;;;21.52;30.98
46412;BME280;32113;42.012;24.870;2022-09-20T17:54:07;99001.38;;;21.42;31.65